Time;durP1;ratioP1;P1;durP2;ratioP2;P2;SDS_P1;SDS_P2;PMS_P1;PMS_P2;Temp;Humidity;BMP_temperature;BMP_pressure;BME280_temperature;BME280_humidity;BME280_pressure;Samples;Min_cycle;Max_cycle;Signal;HPM_P1;HPM_P2
2021/12/14 00:02:27;;;;;;;143.40;12.23;;;;;;;;;;5057565;28;20139;-63
2021/12/14 00:04:55;;;;;;;150.07;13.98;;;;;;;;;;5056544;28;20060;-63
2021/12/14 00:07:22;;;;;;;186.02;14.57;;;;;;;;;;5066536;28;20124;-62
2021/12/14 00:10:10;;;;;;;143.55;11.85;;;;;;;;;;5064406;28;20131;-63
2021/12/14 00:13:01;;;;;;;207.88;14.73;;;;;;;;;;5060665;28;20123;-62
2021/12/14 00:15:28;;;;;;;126.38;11.73;;;;;;;;;;5059342;28;20132;-62
2021/12/14 00:18:00;;;;;;;103.82;11.27;;;;;;;;;;5057620;28;20127;-62
2021/12/14 00:20:29;;;;;;;116.50;10.60;;;;;;;;;;5057420;28;20144;-62
2021/12/14 00:25:34;;;;;;;124.70;10.05;;;;;;;;;;5056688;28;20758;-62
2021/12/14 00:28:03;;;;;;;90.63;9.25;;;;;;;;;;5053565;28;20480;-62
2021/12/14 00:30:33;;;;;;;122.13;9.95;;;;;;;;;;5059544;28;20128;-62
2021/12/14 00:32:59;;;;;;;138.63;10.35;;;;;;;;;;5062099;28;20135;-62
2021/12/14 00:35:26;;;;;;;125.83;10.70;;;;;;;;;;5057095;27;20115;-62
2021/12/14 00:37:54;;;;;;;124.80;9.55;;;;;;;;;;5042069;28;20049;-62
2021/12/14 00:40:31;;;;;;;301.20;16.13;;;;;;;;;;5040235;28;20051;-62
2021/12/14 00:43:04;;;;;;;213.20;12.93;;;;;;;;;;5045071;28;20072;-62
2021/12/14 00:45:33;;;;;;;190.23;13.32;;;;;;;;;;5037668;28;20128;-62
2021/12/14 00:47:59;;;;;;;259.55;15.20;;;;;;;;;;5040549;28;20132;-62
2021/12/14 00:50:33;;;;;;;139.80;11.30;;;;;;;;;;5039207;28;20124;-62
2021/12/14 00:52:59;;;;;;;117.82;9.82;;;;;;;;;;5041589;28;20164;-62
2021/12/14 00:55:30;;;;;;;209.25;12.63;;;;;;;;;;5037978;28;20132;-63
2021/12/14 00:58:03;;;;;;;153.57;12.57;;;;;;;;;;5041873;28;20057;-62
2021/12/14 01:00:34;;;;;;;131.95;12.68;;;;;;;;;;5037353;28;20069;-62
2021/12/14 01:03:03;;;;;;;149.32;13.20;;;;;;;;;;5040667;28;20053;-62
2021/12/14 01:05:38;;;;;;;124.25;10.93;;;;;;;;;;5040600;28;20076;-62
2021/12/14 01:08:08;;;;;;;149.85;11.10;;;;;;;;;;5042034;28;20132;-62
2021/12/14 01:10:37;;;;;;;137.38;12.77;;;;;;;;;;5030173;28;20140;-63
2021/12/14 01:13:07;;;;;;;147.35;11.20;;;;;;;;;;5029017;28;20049;-62
2021/12/14 01:15:50;;;;;;;97.70;10.00;;;;;;;;;;5048372;28;20120;-62
2021/12/14 01:18:44;;;;;;;129.00;10.60;;;;;;;;;;5038300;28;20432;-62
2021/12/14 01:24:24;;;;;;;122.13;9.02;;;;;;;;;;5040534;28;20144;-63
2021/12/14 01:26:51;;;;;;;164.68;11.50;;;;;;;;;;5041556;28;20142;-62
2021/12/14 01:29:20;;;;;;;193.45;12.88;;;;;;;;;;5040991;28;20052;-63
2021/12/14 01:31:49;;;;;;;176.93;11.35;;;;;;;;;;5042829;28;20115;-63
2021/12/14 01:34:17;;;;;;;274.25;15.32;;;;;;;;;;5044883;28;20057;-63
2021/12/14 01:36:55;;;;;;;168.25;11.63;;;;;;;;;;5055572;27;20140;-63
2021/12/14 01:42:08;;;;;;;160.73;13.35;;;;;;;;;;5059072;28;20136;-63
2021/12/14 01:44:40;;;;;;;432.15;22.73;;;;;;;;;;5062343;28;20135;-63
2021/12/14 01:47:17;;;;;;;394.90;22.88;;;;;;;;;;5060551;28;20084;-62
2021/12/14 01:49:43;;;;;;;303.98;16.50;;;;;;;;;;5063392;28;20091;-62
2021/12/14 01:52:13;;;;;;;207.85;15.55;;;;;;;;;;5060850;28;20127;-63
2021/12/14 01:54:42;;;;;;;388.50;22.20;;;;;;;;;;5063980;28;20083;-63
2021/12/14 01:57:09;;;;;;;350.40;20.33;;;;;;;;;;5059137;28;20044;-63
2021/12/14 01:59:42;;;;;;;421.27;24.65;;;;;;;;;;5058079;28;20137;-63
2021/12/14 02:02:21;;;;;;;651.38;31.83;;;;;;;;;;5056482;28;20045;-63
2021/12/14 02:04:49;;;;;;;634.15;31.63;;;;;;;;;;5061043;28;20542;-63
2021/12/14 02:07:16;;;;;;;;;;;;;;;;;;5057557;28;20132;-63
2021/12/14 02:09:43;;;;;;;899.97;42.17;;;;;;;;;;5059196;28;20384;-63
2021/12/14 02:12:19;;;;;;;794.88;40.20;;;;;;;;;;5059959;28;20075;-63
2021/12/14 02:14:46;;;;;;;327.27;18.13;;;;;;;;;;5061117;28;20132;-63
2021/12/14 02:17:13;;;;;;;321.57;19.13;;;;;;;;;;5060673;28;20131;-63
2021/12/14 02:19:41;;;;;;;701.70;35.90;;;;;;;;;;5059499;28;20666;-63
2021/12/14 02:22:09;;;;;;;289.42;20.75;;;;;;;;;;5062301;28;20126;-63
2021/12/14 02:24:36;;;;;;;391.52;22.50;;;;;;;;;;5059832;28;20476;-63
2021/12/14 02:27:05;;;;;;;322.70;19.60;;;;;;;;;;5059762;28;20041;-63
2021/12/14 02:29:32;;;;;;;316.40;19.10;;;;;;;;;;5058779;28;20080;-63
2021/12/14 02:32:07;;;;;;;327.17;20.85;;;;;;;;;;5064475;28;20127;-62
2021/12/14 02:34:46;;;;;;;457.58;27.95;;;;;;;;;;5059477;28;20048;-63
2021/12/14 02:37:13;;;;;;;246.73;16.48;;;;;;;;;;5044239;28;20124;-63
2021/12/14 02:42:08;;;;;;;283.08;18.98;;;;;;;;;;5038343;28;20092;-63
2021/12/14 02:44:35;;;;;;;126.50;10.82;;;;;;;;;;5037040;28;20076;-63
2021/12/14 02:47:07;;;;;;;142.40;12.07;;;;;;;;;;5034940;28;20164;-63
2021/12/14 02:49:35;;;;;;;119.15;11.10;;;;;;;;;;5038123;28;20064;-63
2021/12/14 02:52:06;;;;;;;123.97;10.80;;;;;;;;;;5035416;28;20152;-63
2021/12/14 02:54:43;;;;;;;135.57;11.70;;;;;;;;;;5034911;28;20406;-63
2021/12/14 02:57:18;;;;;;;104.60;9.90;;;;;;;;;;5035447;28;20041;-63
2021/12/14 02:59:46;;;;;;;167.32;11.55;;;;;;;;;;5040565;28;20596;-63
2021/12/14 03:02:12;;;;;;;;;;;;;;;;;;5040867;28;20049;-63
2021/12/14 03:04:40;;;;;;;122.90;11.57;;;;;;;;;;5037208;28;19968;-63
2021/12/14 03:07:08;;;;;;;157.43;11.80;;;;;;;;;;5021189;28;20463;-63
2021/12/14 03:10:18;;;;;;;125.53;10.32;;;;;;;;;;5036145;28;20052;-63
2021/12/14 03:12:39;;;;;;;137.80;11.32;;;;;;;;;;5034515;28;20128;-63
2021/12/14 03:15:13;;;;;;;148.23;11.70;;;;;;;;;;5036848;28;20092;-63
2021/12/14 03:17:43;;;;;;;167.85;12.13;;;;;;;;;;5037050;28;20798;-63
2021/12/14 03:20:11;;;;;;;149.13;12.60;;;;;;;;;;5038521;28;20132;-63
2021/12/14 03:22:40;;;;;;;240.85;16.58;;;;;;;;;;5040295;28;20497;-63
2021/12/14 03:25:09;;;;;;;118.93;11.07;;;;;;;;;;5039115;28;20775;-63
2021/12/14 03:27:39;;;;;;;178.02;12.68;;;;;;;;;;5037705;28;20129;-63
2021/12/14 03:30:12;;;;;;;265.73;17.15;;;;;;;;;;5040684;28;20132;-63
2021/12/14 03:32:39;;;;;;;224.40;13.90;;;;;;;;;;5034175;28;20048;-63
2021/12/14 03:35:05;;;;;;;297.33;17.50;;;;;;;;;;5035560;28;20052;-64
2021/12/14 03:37:32;;;;;;;369.57;20.63;;;;;;;;;;5059142;28;20087;-63
2021/12/14 03:40:00;;;;;;;204.10;14.43;;;;;;;;;;5064516;28;20131;-63
2021/12/14 03:42:35;;;;;;;161.10;10.52;;;;;;;;;;5054918;28;20504;-63
2021/12/14 03:45:04;;;;;;;188.52;12.82;;;;;;;;;;5059003;28;20110;-63
2021/12/14 03:47:39;;;;;;;114.65;10.05;;;;;;;;;;5058714;28;20124;-63
2021/12/14 03:50:09;;;;;;;183.73;12.25;;;;;;;;;;5057576;28;20063;-63
2021/12/14 03:52:36;;;;;;;117.18;10.90;;;;;;;;;;5057738;28;20124;-63
2021/12/14 03:55:09;;;;;;;251.57;14.95;;;;;;;;;;5058291;28;20060;-63
2021/12/14 03:57:36;;;;;;;140.27;10.60;;;;;;;;;;5058971;28;20056;-63
2021/12/14 04:00:05;;;;;;;479.75;22.55;;;;;;;;;;5058135;28;20053;-63
2021/12/14 04:02:31;;;;;;;275.23;16.63;;;;;;;;;;5058435;28;20050;-63
2021/12/14 04:05:04;;;;;;;143.63;10.13;;;;;;;;;;5056519;28;20084;-63
2021/12/14 04:07:31;;;;;;;241.48;17.00;;;;;;;;;;5058241;28;20136;-63
2021/12/14 04:09:57;;;;;;;181.63;13.48;;;;;;;;;;5041443;28;20107;-63
2021/12/14 04:12:24;;;;;;;150.15;11.43;;;;;;;;;;5057448;28;20064;-63
2021/12/14 04:14:54;;;;;;;199.60;13.80;;;;;;;;;;5056704;28;20139;-63
2021/12/14 04:17:21;;;;;;;176.60;13.00;;;;;;;;;;5064144;28;20333;-62
2021/12/14 04:19:48;;;;;;;208.07;13.25;;;;;;;;;;5056821;28;20047;-62
2021/12/14 04:22:20;;;;;;;369.30;20.40;;;;;;;;;;5060232;28;20119;-62
2021/12/14 04:24:47;;;;;;;256.35;16.00;;;;;;;;;;5056890;28;20143;-62
2021/12/14 04:27:23;;;;;;;309.88;15.95;;;;;;;;;;5060544;28;20139;-62
2021/12/14 04:29:52;;;;;;;625.17;31.65;;;;;;;;;;5059807;28;20124;-62
2021/12/14 04:32:18;;;;;;;142.52;10.80;;;;;;;;;;5058476;28;20137;-62
2021/12/14 04:34:48;;;;;;;110.55;9.20;;;;;;;;;;5043943;28;20492;-63
2021/12/14 04:37:16;;;;;;;288.75;15.52;;;;;;;;;;5057641;28;20135;-63
2021/12/14 04:39:52;;;;;;;126.70;9.48;;;;;;;;;;5063849;28;20127;-62
2021/12/14 04:53:33;;;;;;;90.32;7.72;;;;;;;;;;5054466;28;20552;-62
2021/12/14 04:56:00;;;;;;;92.28;8.88;;;;;;;;;;5054867;28;20131;-62
2021/12/14 04:58:28;;;;;;;106.28;8.63;;;;;;;;;;5058294;28;20132;-62
2021/12/14 05:00:57;;;;;;;110.45;9.35;;;;;;;;;;5052025;28;20049;-63
2021/12/14 05:03:29;;;;;;;81.78;8.05;;;;;;;;;;5058652;28;20059;-63
2021/12/14 05:06:09;;;;;;;100.75;9.02;;;;;;;;;;5047512;28;20084;-63
2021/12/14 05:11:10;;;;;;;115.97;9.10;;;;;;;;;;5056222;28;20084;-63
2021/12/14 05:13:40;;;;;;;95.28;9.07;;;;;;;;;;5057119;28;20081;-63
2021/12/14 05:16:14;;;;;;;93.82;9.55;;;;;;;;;;5058410;28;20136;-63
2021/12/14 05:18:45;;;;;;;91.97;8.68;;;;;;;;;;5062799;28;20279;-63
2021/12/14 05:21:12;;;;;;;119.82;9.40;;;;;;;;;;5061214;28;20044;-62
2021/12/14 05:23:39;;;;;;;126.15;10.18;;;;;;;;;;5060127;28;20127;-63
2021/12/14 05:26:07;;;;;;;108.03;10.65;;;;;;;;;;5048749;28;20159;-63
2021/12/14 05:28:34;;;;;;;57.55;5.75;;;;;;;;;;5063961;28;20128;-63
2021/12/14 05:31:01;;;;;;;72.80;7.40;;;;;;;;;;5058434;28;20504;-63
2021/12/14 05:33:29;;;;;;;87.23;8.07;;;;;;;;;;5055029;28;20044;-63
2021/12/14 05:35:59;;;;;;;83.20;7.88;;;;;;;;;;5065545;28;20335;-63
2021/12/14 05:38:39;;;;;;;104.15;9.20;;;;;;;;;;5060121;28;20086;-63
2021/12/14 05:41:11;;;;;;;74.28;7.32;;;;;;;;;;5058133;28;20071;-63
2021/12/14 05:43:37;;;;;;;83.68;8.30;;;;;;;;;;5058452;28;20129;-63
2021/12/14 05:46:05;;;;;;;64.63;7.93;;;;;;;;;;5058638;28;20160;-63
2021/12/14 05:48:38;;;;;;;88.85;7.88;;;;;;;;;;5059308;28;20075;-63
2021/12/14 05:51:09;;;;;;;82.78;7.13;;;;;;;;;;5062854;28;20090;-63
2021/12/14 05:53:37;;;;;;;91.80;7.88;;;;;;;;;;5064504;28;20075;-63
2021/12/14 05:56:10;;;;;;;87.80;7.13;;;;;;;;;;5060481;28;20524;-63
2021/12/14 05:58:36;;;;;;;74.22;7.72;;;;;;;;;;5056757;28;20040;-63
2021/12/14 06:01:05;;;;;;;88.55;8.70;;;;;;;;;;5061743;28;20157;-63
2021/12/14 06:03:41;;;;;;;94.35;8.13;;;;;;;;;;5057522;28;20072;-63
2021/12/14 06:06:17;;;;;;;82.57;8.30;;;;;;;;;;5063248;28;20128;-63
2021/12/14 06:08:44;;;;;;;71.07;6.57;;;;;;;;;;5059106;28;20044;-63
2021/12/14 06:11:19;;;;;;;72.90;7.45;;;;;;;;;;5064093;28;20052;-63
2021/12/14 06:13:46;;;;;;;78.43;7.22;;;;;;;;;;5065074;28;20437;-63
2021/12/14 06:16:27;;;;;;;87.05;7.05;;;;;;;;;;5059583;28;20085;-63
2021/12/14 06:19:13;;;;;;;73.65;6.80;;;;;;;;;;5057904;28;20225;-63
2021/12/14 06:21:40;;;;;;;72.57;7.15;;;;;;;;;;5058149;28;20530;-63
2021/12/14 06:24:09;;;;;;;91.38;6.68;;;;;;;;;;5059230;28;20509;-63
2021/12/14 06:26:37;;;;;;;83.90;7.78;;;;;;;;;;5064520;28;20131;-63
2021/12/14 06:29:14;;;;;;;90.20;7.80;;;;;;;;;;5062059;28;20084;-63
2021/12/14 06:31:48;;;;;;;64.55;7.40;;;;;;;;;;5058546;28;20048;-63
2021/12/14 06:34:16;;;;;;;56.95;5.28;;;;;;;;;;5060253;28;20072;-63
2021/12/14 06:36:48;;;;;;;80.88;7.63;;;;;;;;;;5046113;28;20627;-63
2021/12/14 06:39:15;;;;;;;85.18;7.43;;;;;;;;;;5041801;28;20475;-63
2021/12/14 06:41:41;;;;;;;74.68;8.02;;;;;;;;;;5045230;28;20151;-63
2021/12/14 06:44:08;;;;;;;94.32;7.65;;;;;;;;;;5039215;28;20140;-63
2021/12/14 06:46:36;;;;;;;84.07;7.65;;;;;;;;;;5041792;28;20045;-63
2021/12/14 06:49:06;;;;;;;88.50;7.90;;;;;;;;;;5042846;28;20107;-63
2021/12/14 06:51:36;;;;;;;95.82;8.27;;;;;;;;;;5041880;28;20131;-62
2021/12/14 06:54:11;;;;;;;96.15;7.45;;;;;;;;;;5035558;28;20453;-63
2021/12/14 06:56:39;;;;;;;71.50;7.28;;;;;;;;;;5040333;28;20658;-63
2021/12/14 06:59:25;;;;;;;75.55;6.75;;;;;;;;;;5044952;28;20053;-63
2021/12/14 07:02:00;;;;;;;87.68;7.40;;;;;;;;;;5036493;28;20127;-63
2021/12/14 07:04:29;;;;;;;70.22;7.82;;;;;;;;;;5035859;28;20049;-63
2021/12/14 07:06:58;;;;;;;67.97;6.35;;;;;;;;;;5037448;28;20056;-63
2021/12/14 07:09:31;;;;;;;79.13;6.55;;;;;;;;;;5040249;28;20127;-63
2021/12/14 07:12:00;;;;;;;95.82;7.65;;;;;;;;;;5039190;28;20142;-63
2021/12/14 07:14:27;;;;;;;85.10;7.47;;;;;;;;;;5040902;28;20092;-63
2021/12/14 07:16:55;;;;;;;73.30;6.93;;;;;;;;;;5040668;28;20076;-63
2021/12/14 07:19:39;;;;;;;73.35;7.28;;;;;;;;;;5034099;28;20157;-63
2021/12/14 07:22:33;;;;;;;82.78;8.57;;;;;;;;;;5042187;28;20139;-63
2021/12/14 07:25:12;;;;;;;80.00;6.80;;;;;;;;;;5027432;28;20487;-63
2021/12/14 07:27:40;;;;;;;92.93;7.40;;;;;;;;;;5040753;28;20136;-63
2021/12/14 07:30:12;;;;;;;68.97;7.35;;;;;;;;;;5042162;28;20531;-63
2021/12/14 07:32:41;;;;;;;78.13;8.45;;;;;;;;;;5034757;28;20130;-63
2021/12/14 07:35:32;;;;;;;99.72;7.80;;;;;;;;;;5033960;28;20522;-63
2021/12/14 07:38:01;;;;;;;71.28;8.13;;;;;;;;;;5057850;28;20099;-63
2021/12/14 07:40:37;;;;;;;70.55;6.55;;;;;;;;;;5057654;28;20135;-63
2021/12/14 07:43:11;;;;;;;86.70;7.50;;;;;;;;;;5061455;28;20041;-63
2021/12/14 07:45:39;;;;;;;103.00;8.20;;;;;;;;;;5064622;28;20072;-63
2021/12/14 07:48:06;;;;;;;73.85;7.57;;;;;;;;;;5066222;28;20143;-63
2021/12/14 07:50:40;;;;;;;91.15;7.18;;;;;;;;;;5058451;28;20140;-63
2021/12/14 07:53:13;;;;;;;74.00;7.75;;;;;;;;;;5060937;28;20098;-63
2021/12/14 07:55:42;;;;;;;83.03;7.72;;;;;;;;;;5058675;28;20083;-63
2021/12/14 07:58:14;;;;;;;84.03;9.55;;;;;;;;;;5060047;28;20432;-63
2021/12/14 08:00:55;;;;;;;87.47;8.57;;;;;;;;;;5061333;28;20160;-63
2021/12/14 08:03:28;;;;;;;78.28;7.53;;;;;;;;;;5057568;28;20044;-63
2021/12/14 08:05:58;;;;;;;94.93;9.60;;;;;;;;;;5056816;28;20049;-63
2021/12/14 08:08:44;;;;;;;67.07;5.93;;;;;;;;;;5057540;28;20075;-63
2021/12/14 08:14:18;;;;;;;92.93;8.65;;;;;;;;;;5052654;28;20138;-63
2021/12/14 08:16:56;;;;;;;74.82;7.28;;;;;;;;;;5042546;28;20132;-63
2021/12/14 08:19:25;;;;;;;83.68;8.63;;;;;;;;;;5061254;28;20119;-63
2021/12/14 08:22:13;;;;;;;81.65;8.48;;;;;;;;;;5062058;28;20123;-63
2021/12/14 08:24:46;;;;;;;75.22;8.73;;;;;;;;;;5058674;28;20106;-63
2021/12/14 08:27:21;;;;;;;74.57;8.35;;;;;;;;;;5061068;28;20084;-63
2021/12/14 08:29:52;;;;;;;88.80;8.45;;;;;;;;;;5056448;28;20132;-63
2021/12/14 08:32:21;;;;;;;79.80;8.00;;;;;;;;;;5054271;28;20575;-63
2021/12/14 08:34:50;;;;;;;88.88;8.20;;;;;;;;;;5057505;28;20135;-63
2021/12/14 08:37:35;;;;;;;86.28;8.25;;;;;;;;;;5060339;28;20065;-63
2021/12/14 08:40:08;;;;;;;87.43;8.48;;;;;;;;;;5056864;28;20092;-63
2021/12/14 08:42:50;;;;;;;76.13;7.70;;;;;;;;;;5056431;28;20491;-63
2021/12/14 08:45:26;;;;;;;77.28;8.27;;;;;;;;;;5055355;28;20523;-63
2021/12/14 08:48:01;;;;;;;75.28;7.93;;;;;;;;;;5056885;28;20055;-63
2021/12/14 08:50:47;;;;;;;80.65;7.65;;;;;;;;;;5057470;28;20127;-63
2021/12/14 08:53:14;;;;;;;73.80;7.68;;;;;;;;;;5065162;28;20122;-63
2021/12/14 08:55:49;;;;;;;87.82;7.47;;;;;;;;;;5063339;28;20131;-63
2021/12/14 08:58:16;;;;;;;81.60;8.00;;;;;;;;;;5063980;28;20080;-62
2021/12/14 09:00:49;;;;;;;72.15;7.43;;;;;;;;;;5059686;28;20087;-63
2021/12/14 09:03:32;;;;;;;71.57;5.50;;;;;;;;;;5061243;28;20411;-63
2021/12/14 09:06:04;;;;;;;73.45;7.10;;;;;;;;;;5063477;28;20457;-63
2021/12/14 09:08:33;;;;;;;77.05;7.63;;;;;;;;;;5060777;28;20086;-63
2021/12/14 09:11:01;;;;;;;67.47;6.28;;;;;;;;;;5063667;28;20092;-63
2021/12/14 09:13:28;;;;;;;59.22;6.07;;;;;;;;;;5063551;28;20080;-63
2021/12/14 09:16:00;;;;;;;112.13;10.23;;;;;;;;;;5065958;28;20084;-64
2021/12/14 09:18:30;;;;;;;68.57;6.88;;;;;;;;;;5065201;28;20144;-63
2021/12/14 09:21:02;;;;;;;70.03;7.18;;;;;;;;;;5064347;28;20139;-63
2021/12/14 09:23:31;;;;;;;70.13;6.68;;;;;;;;;;5057236;28;20132;-63
2021/12/14 09:25:58;;;;;;;70.15;7.32;;;;;;;;;;5060595;28;20053;-63
2021/12/14 09:28:25;;;;;;;65.43;8.30;;;;;;;;;;5064244;28;20071;-63
2021/12/14 09:30:55;;;;;;;77.63;7.28;;;;;;;;;;5059223;28;20516;-63
2021/12/14 09:33:27;;;;;;;58.10;7.47;;;;;;;;;;5066967;28;20415;-63
2021/12/14 09:35:57;;;;;;;71.40;8.30;;;;;;;;;;5062651;28;20056;-63
2021/12/14 09:38:31;;;;;;;82.45;8.73;;;;;;;;;;5063488;28;20488;-63
2021/12/14 09:41:01;;;;;;;57.22;7.20;;;;;;;;;;5064019;28;20092;-63
2021/12/14 09:43:32;;;;;;;66.32;8.05;;;;;;;;;;5062389;28;20048;-63
2021/12/14 09:46:00;;;;;;;91.43;8.60;;;;;;;;;;5061418;28;20084;-63
2021/12/14 09:48:47;;;;;;;74.05;7.55;;;;;;;;;;5064068;28;20075;-63
2021/12/14 09:51:20;;;;;;;69.57;8.48;;;;;;;;;;5064227;28;20049;-63
2021/12/14 09:53:48;;;;;;;84.10;11.82;;;;;;;;;;5061878;28;20516;-63
2021/12/14 09:56:17;;;;;;;66.75;8.40;;;;;;;;;;5061602;28;20106;-63
2021/12/14 09:58:46;;;;;;;78.47;9.35;;;;;;;;;;5064442;28;20132;-62
2021/12/14 10:01:18;;;;;;;63.50;7.75;;;;;;;;;;5063585;28;20056;-63
2021/12/14 10:03:47;;;;;;;68.10;8.93;;;;;;;;;;5064082;28;20052;-63
2021/12/14 10:06:17;;;;;;;62.20;9.35;;;;;;;;;;5063876;28;20049;-63
2021/12/14 10:08:48;;;;;;;66.70;16.00;;;;;;;;;;5058454;28;20092;-63
2021/12/14 10:11:34;;;;;;;;;;;;;;;;;;5040850;28;20547;-63
2021/12/14 10:14:01;;;;;;;61.60;10.57;;;;;;;;;;5064101;28;20016;-63
2021/12/14 10:16:34;;;;;;;60.92;11.27;;;;;;;;;;5062621;28;20839;-63
2021/12/14 10:19:03;;;;;;;69.75;13.20;;;;;;;;;;5059689;28;20066;-63
2021/12/14 10:21:32;;;;;;;82.80;16.48;;;;;;;;;;5060511;28;20049;-63
2021/12/14 10:24:02;;;;;;;74.40;13.75;;;;;;;;;;5059183;28;20535;-62
2021/12/14 10:26:29;;;;;;;;;;;;;;;;;;5060353;28;20123;-62
2021/12/14 10:28:56;;;;;;;71.30;7.50;;;;;;;;;;5061295;28;19967;-63
2021/12/14 10:31:29;;;;;;;74.43;13.45;;;;;;;;;;5055873;28;20497;-63
2021/12/14 10:33:57;;;;;;;65.25;9.23;;;;;;;;;;5049353;28;20048;-63
2021/12/14 10:36:31;;;;;;;50.85;10.02;;;;;;;;;;5065230;28;20135;-63
2021/12/14 10:44:40;;;;;;;62.25;7.38;;;;;;;;;;5057046;28;20127;-63
2021/12/14 10:47:08;;;;;;;49.88;6.90;;;;;;;;;;5063736;28;20079;-63
2021/12/14 10:49:35;;;;;;;58.35;6.57;;;;;;;;;;5062437;28;20063;-63
2021/12/14 10:52:14;;;;;;;46.00;5.63;;;;;;;;;;5056910;28;20568;-63
2021/12/14 10:54:42;;;;;;;48.95;6.72;;;;;;;;;;5056844;28;20527;-63
2021/12/14 10:57:12;;;;;;;62.95;8.85;;;;;;;;;;5058301;28;20571;-63
2021/12/14 10:59:41;;;;;;;57.17;14.20;;;;;;;;;;5062419;28;20131;-63
2021/12/14 11:02:08;;;;;;;57.55;15.68;;;;;;;;;;5061029;28;20131;-63
2021/12/14 11:04:51;;;;;;;57.33;12.10;;;;;;;;;;5060114;28;20099;-63
2021/12/14 11:07:22;;;;;;;51.85;9.60;;;;;;;;;;5063105;28;20500;-63
2021/12/14 11:09:55;;;;;;;66.18;14.18;;;;;;;;;;5062324;28;20128;-63
2021/12/14 11:12:27;;;;;;;52.35;11.55;;;;;;;;;;5056962;28;20474;-63
2021/12/14 11:14:56;;;;;;;54.13;10.48;;;;;;;;;;5061467;28;20091;-63
2021/12/14 11:20:19;;;;;;;39.85;7.50;;;;;;;;;;5060950;28;20140;-63
2021/12/14 11:22:45;;;;;;;39.83;9.73;;;;;;;;;;5057901;28;20513;-62
2021/12/14 11:25:33;;;;;;;48.05;7.53;;;;;;;;;;5064028;28;20052;-63
2021/12/14 11:28:11;;;;;;;52.08;12.52;;;;;;;;;;5059260;28;20140;-63
2021/12/14 11:30:50;;;;;;;46.08;9.85;;;;;;;;;;5063985;28;20136;-63
2021/12/14 11:33:17;;;;;;;55.10;10.20;;;;;;;;;;5056808;28;20179;-63
2021/12/14 11:35:47;;;;;;;50.25;11.95;;;;;;;;;;5059200;28;20152;-63
2021/12/14 11:38:30;;;;;;;52.35;9.82;;;;;;;;;;5057901;28;20114;-62
2021/12/14 11:40:58;;;;;;;44.33;7.40;;;;;;;;;;5051454;28;20122;-63
2021/12/14 11:43:26;;;;;;;42.90;6.95;;;;;;;;;;5056240;28;20076;-63
2021/12/14 11:45:53;;;;;;;64.95;10.57;;;;;;;;;;5057575;28;20056;-62
2021/12/14 11:48:28;;;;;;;40.95;9.32;;;;;;;;;;5060502;28;20055;-63
2021/12/14 11:50:55;;;;;;;61.03;10.13;;;;;;;;;;5057734;28;20075;-63
2021/12/14 11:53:23;;;;;;;57.30;10.30;;;;;;;;;;5057270;28;20080;-63
2021/12/14 11:55:51;;;;;;;61.30;11.35;;;;;;;;;;5059982;28;20558;-63
2021/12/14 11:58:33;;;;;;;48.88;11.18;;;;;;;;;;5058696;28;20131;-63
2021/12/14 12:01:18;;;;;;;70.60;13.18;;;;;;;;;;5059941;28;20106;-63
2021/12/14 12:03:48;;;;;;;60.33;13.07;;;;;;;;;;5056875;28;20492;-63
2021/12/14 12:12:05;;;;;;;45.80;7.97;;;;;;;;;;5056452;28;20048;-63
2021/12/14 12:14:31;;;;;;;54.90;8.77;;;;;;;;;;5061638;28;20099;-63
2021/12/14 12:17:08;;;;;;;48.47;9.60;;;;;;;;;;5063235;28;20049;-63
2021/12/14 12:19:36;;;;;;;43.30;8.82;;;;;;;;;;5062695;28;20124;-62
2021/12/14 12:22:12;;;;;;;40.63;10.07;;;;;;;;;;5062356;28;20080;-63
2021/12/14 12:24:44;;;;;;;60.75;8.60;;;;;;;;;;5060939;28;20036;-63
2021/12/14 12:27:17;;;;;;;59.05;10.55;;;;;;;;;;5066192;28;20076;-63
2021/12/14 12:29:44;;;;;;;30.25;6.95;;;;;;;;;;5061594;28;20143;-63
2021/12/14 12:32:19;;;;;;;39.13;5.20;;;;;;;;;;5062694;28;20131;-63
2021/12/14 12:34:48;;;;;;;42.30;5.68;;;;;;;;;;5064304;28;20072;-62
2021/12/14 12:37:16;;;;;;;55.15;7.95;;;;;;;;;;5059826;28;20052;-63
2021/12/14 12:39:52;;;;;;;28.55;4.82;;;;;;;;;;5060784;28;20129;-63
2021/12/14 12:42:22;;;;;;;51.72;9.00;;;;;;;;;;5062799;28;20053;-63
2021/12/14 12:44:49;;;;;;;37.28;5.28;;;;;;;;;;5062044;28;20081;-62
2021/12/14 12:47:17;;;;;;;43.40;7.30;;;;;;;;;;5060697;28;20507;-63
2021/12/14 12:49:48;;;;;;;44.63;7.70;;;;;;;;;;5058745;28;20057;-63
2021/12/14 12:52:14;;;;;;;61.28;10.50;;;;;;;;;;5060455;28;20573;-63
2021/12/14 12:54:44;;;;;;;51.15;9.70;;;;;;;;;;5064516;28;20115;-63
2021/12/14 12:57:28;;;;;;;53.33;6.22;;;;;;;;;;5065047;28;20049;-63
2021/12/14 13:00:09;;;;;;;50.50;7.07;;;;;;;;;;5061146;28;20053;-63
2021/12/14 13:02:42;;;;;;;56.92;7.00;;;;;;;;;;5058323;28;20056;-62
2021/12/14 13:05:19;;;;;;;53.97;7.78;;;;;;;;;;5063793;28;20049;-62
2021/12/14 13:07:51;;;;;;;46.85;7.18;;;;;;;;;;5052029;28;20172;-63
2021/12/14 13:10:17;;;;;;;53.33;8.45;;;;;;;;;;5062576;28;20080;-63
2021/12/14 13:12:56;;;;;;;48.50;7.65;;;;;;;;;;5063151;28;20130;-63
2021/12/14 13:15:35;;;;;;;51.33;7.78;;;;;;;;;;5063352;28;20041;-63
2021/12/14 13:18:20;;;;;;;62.50;8.48;;;;;;;;;;5058516;28;20397;-63
2021/12/14 13:20:53;;;;;;;51.65;6.28;;;;;;;;;;5059828;28;20063;-62
2021/12/14 13:23:22;;;;;;;51.50;6.38;;;;;;;;;;5060994;28;20085;-63
2021/12/14 13:25:49;;;;;;;52.67;6.28;;;;;;;;;;5059410;28;20132;-63
2021/12/14 13:28:16;;;;;;;;;;;;;;;;;;5063618;28;20518;-63
2021/12/14 13:30:43;;;;;;;54.08;5.72;;;;;;;;;;5061754;28;19968;-63
2021/12/14 13:33:23;;;;;;;55.38;7.90;;;;;;;;;;5067082;28;20151;-63
2021/12/14 13:35:50;;;;;;;58.55;7.18;;;;;;;;;;5065858;28;20055;-63
2021/12/14 13:38:17;;;;;;;58.65;11.05;;;;;;;;;;5059759;28;20072;-62
2021/12/14 13:40:48;;;;;;;62.97;11.80;;;;;;;;;;5063055;28;20156;-63
2021/12/14 13:43:20;;;;;;;56.97;10.32;;;;;;;;;;5061495;28;20136;-62
2021/12/14 13:45:50;;;;;;;55.35;9.40;;;;;;;;;;5060368;28;20080;-62
2021/12/14 13:48:19;;;;;;;59.17;10.73;;;;;;;;;;5060070;28;20076;-63
2021/12/14 13:50:49;;;;;;;55.88;7.55;;;;;;;;;;5064746;28;20084;-62
2021/12/14 13:53:16;;;;;;;64.78;7.05;;;;;;;;;;5060137;28;20084;-63
2021/12/14 13:56:10;;;;;;;43.08;6.38;;;;;;;;;;5058507;28;20056;-62
2021/12/14 13:58:38;;;;;;;52.00;6.72;;;;;;;;;;5059541;28;20085;-63
2021/12/14 14:01:17;;;;;;;62.17;5.60;;;;;;;;;;5060274;28;20650;-63
2021/12/14 14:03:48;;;;;;;47.70;5.38;;;;;;;;;;5064458;28;20068;-62
2021/12/14 14:06:36;;;;;;;54.50;4.93;;;;;;;;;;5061240;28;20051;-63
2021/12/14 14:09:02;;;;;;;51.70;5.50;;;;;;;;;;5060178;28;20090;-62
2021/12/14 14:11:51;;;;;;;52.80;6.03;;;;;;;;;;5060987;28;20135;-63
2021/12/14 14:14:17;;;;;;;63.50;5.20;;;;;;;;;;5061935;28;20128;-63
2021/12/14 14:16:55;;;;;;;69.43;6.93;;;;;;;;;;5062318;28;20416;-63
2021/12/14 14:19:24;;;;;;;71.75;5.75;;;;;;;;;;5062100;28;20579;-63
2021/12/14 14:21:53;;;;;;;61.10;5.50;;;;;;;;;;5063414;28;20132;-63
2021/12/14 14:24:30;;;;;;;59.53;4.63;;;;;;;;;;5058782;28;20676;-63
2021/12/14 14:27:07;;;;;;;60.58;5.28;;;;;;;;;;5061771;28;20556;-63
2021/12/14 14:29:45;;;;;;;55.50;5.20;;;;;;;;;;5061339;28;20087;-63
2021/12/14 14:32:23;;;;;;;66.20;5.65;;;;;;;;;;5061832;28;20087;-62
2021/12/14 14:34:54;;;;;;;60.17;6.78;;;;;;;;;;5059711;28;20144;-63
2021/12/14 14:37:26;;;;;;;65.65;6.13;;;;;;;;;;5063285;28;20056;-62
2021/12/14 14:39:55;;;;;;;54.20;5.78;;;;;;;;;;5062385;28;20080;-63
2021/12/14 14:42:26;;;;;;;63.08;5.13;;;;;;;;;;5057551;28;20084;-63
2021/12/14 14:44:56;;;;;;;53.83;4.72;;;;;;;;;;5059246;28;20076;-63
2021/12/14 14:47:33;;;;;;;66.78;5.28;;;;;;;;;;5063718;28;20665;-63
2021/12/14 14:50:12;;;;;;;73.70;6.30;;;;;;;;;;5061068;28;20496;-63
2021/12/14 14:52:48;;;;;;;92.78;7.60;;;;;;;;;;5060701;28;20127;-63
2021/12/14 14:55:24;;;;;;;77.78;6.07;;;;;;;;;;5054235;28;20095;-63
2021/12/14 14:58:03;;;;;;;72.30;6.32;;;;;;;;;;5059555;28;20132;-63
2021/12/14 15:00:33;;;;;;;66.38;6.05;;;;;;;;;;5061075;28;20135;-63
2021/12/14 15:03:02;;;;;;;59.97;6.30;;;;;;;;;;5061359;28;20155;-63
2021/12/14 15:05:31;;;;;;;64.07;6.72;;;;;;;;;;5057667;28;20049;-62
2021/12/14 15:08:14;;;;;;;77.15;6.97;;;;;;;;;;5058084;28;20135;-63
2021/12/14 15:10:50;;;;;;;64.10;7.50;;;;;;;;;;5063223;28;20120;-63
2021/12/14 15:13:28;;;;;;;83.63;8.90;;;;;;;;;;5059655;28;20132;-62
2021/12/14 15:15:54;;;;;;;66.38;7.03;;;;;;;;;;5059232;28;20088;-62
2021/12/14 15:18:39;;;;;;;83.65;9.10;;;;;;;;;;5061280;28;20041;-62
2021/12/14 15:21:31;;;;;;;78.72;7.22;;;;;;;;;;5057388;28;20128;-62
2021/12/14 15:24:17;;;;;;;105.43;9.00;;;;;;;;;;5060171;28;20070;-63
2021/12/14 15:27:04;;;;;;;93.55;8.38;;;;;;;;;;5061520;28;20128;-62
2021/12/14 15:29:30;;;;;;;71.70;7.80;;;;;;;;;;5061116;28;20630;-63
2021/12/14 15:32:16;;;;;;;82.68;8.73;;;;;;;;;;5056559;28;20080;-63
2021/12/14 15:34:49;;;;;;;67.22;8.10;;;;;;;;;;5057601;28;20054;-63